ENT1CT LKMT-EPKT
Flight info
| Callsign | ENT1CT |
|---|---|
| Flight time | 0h 19m |
| Altitude | 11000 |
| Route | BAVOK |
| Aircraft | B38M/M-SDE1FGHILORVWXY/HB1 |
Departure
| Time | 2026-05-05 19:00 |
|---|---|
| Airport | Leoš Janáček Airport Ostrava (LKMT) |
Arrival
| Time | 2026-05-05 19:19 |
|---|---|
| Airport | Katowice Wojciech Korfanty International Airport (EPKT) |
| Time | Latitude | Longitude | Altitude | Speed | Heading |
|---|---|---|---|---|---|
| 2026-05-05 18:43 | 49.70067 | 18.12563 | 827 ft | 0 kts | 316° |
| 2026-05-05 18:54 | 49.70068 | 18.12562 | 824 ft | 1 kts | 316° |
| 2026-05-05 18:55 | 49.70078 | 18.12536 | 827 ft | 3 kts | 275° |
| 2026-05-05 18:55 | 49.70056 | 18.12478 | 824 ft | 10 kts | 224° |
| 2026-05-05 18:55 | 49.69992 | 18.12381 | 826 ft | 15 kts | 224° |
| 2026-05-05 18:55 | 49.69905 | 18.12242 | 826 ft | 21 kts | 228° |
| 2026-05-05 18:56 | 49.69797 | 18.12066 | 826 ft | 24 kts | 226° |
| 2026-05-05 18:56 | 49.69673 | 18.11867 | 831 ft | 27 kts | 226° |
| 2026-05-05 18:56 | 49.69557 | 18.11672 | 833 ft | 29 kts | 228° |
| 2026-05-05 18:56 | 49.69497 | 18.11578 | 827 ft | 24 kts | 224° |
| 2026-05-05 18:57 | 49.69366 | 18.11379 | 833 ft | 26 kts | 228° |
| 2026-05-05 18:57 | 49.69239 | 18.11169 | 826 ft | 29 kts | 226° |
| 2026-05-05 18:57 | 49.69095 | 18.10937 | 829 ft | 31 kts | 226° |
| 2026-05-05 18:57 | 49.68971 | 18.10735 | 834 ft | 23 kts | 227° |
| 2026-05-05 18:58 | 49.68851 | 18.10541 | 837 ft | 27 kts | 226° |
| 2026-05-05 18:58 | 49.68755 | 18.10373 | 836 ft | 11 kts | 252° |
| 2026-05-05 18:58 | 49.68800 | 18.10262 | 835 ft | 15 kts | 315° |
| 2026-05-05 18:58 | 49.68886 | 18.10132 | 835 ft | 20 kts | 316° |
| 2026-05-05 18:59 | 49.68958 | 18.10035 | 835 ft | 7 kts | 346° |
| 2026-05-05 18:59 | 49.68997 | 18.10077 | 831 ft | 10 kts | 46° |
| 2026-05-05 18:59 | 49.69207 | 18.10416 | 837 ft | 92 kts | 46° |
| 2026-05-05 18:59 | 49.69853 | 18.11477 | 874 ft | 172 kts | 48° |
| 2026-05-05 19:00 | 49.70767 | 18.12990 | 1464 ft | 208 kts | 48° |
| 2026-05-05 19:00 | 49.71809 | 18.14627 | 2696 ft | 221 kts | 47° |
| 2026-05-05 19:00 | 49.72929 | 18.16411 | 3729 ft | 242 kts | 48° |
| 2026-05-05 19:00 | 49.74146 | 18.18364 | 4689 ft | 262 kts | 49° |
| 2026-05-05 19:01 | 49.75460 | 18.20480 | 5653 ft | 282 kts | 49° |
| 2026-05-05 19:01 | 49.76856 | 18.22728 | 6686 ft | 297 kts | 50° |
| 2026-05-05 19:01 | 49.78291 | 18.25050 | 7783 ft | 307 kts | 49° |
| 2026-05-05 19:01 | 49.79791 | 18.27464 | 8881 ft | 315 kts | 47° |
| 2026-05-05 19:02 | 49.81612 | 18.29426 | 9966 ft | 327 kts | 24° |
| 2026-05-05 19:02 | 49.83851 | 18.30253 | 10414 ft | 336 kts | 359° |
| 2026-05-05 19:02 | 49.86109 | 18.29575 | 10564 ft | 329 kts | 331° |
| 2026-05-05 19:02 | 49.87922 | 18.27524 | 10727 ft | 321 kts | 308° |
| 2026-05-05 19:03 | 49.89453 | 18.24913 | 10706 ft | 332 kts | 307° |
| 2026-05-05 19:03 | 49.91045 | 18.22282 | 10752 ft | 338 kts | 311° |
| 2026-05-05 19:03 | 49.93037 | 18.20267 | 10783 ft | 349 kts | 335° |
| 2026-05-05 19:03 | 49.95433 | 18.19528 | 10804 ft | 354 kts | 357° |
| 2026-05-05 19:04 | 49.97905 | 18.19693 | 10802 ft | 358 kts | 8° |
| 2026-05-05 19:04 | 50.00206 | 18.21013 | 10804 ft | 356 kts | 33° |
| 2026-05-05 19:04 | 50.02010 | 18.23532 | 10814 ft | 353 kts | 55° |
| 2026-05-05 19:04 | 50.03412 | 18.26662 | 10805 ft | 352 kts | 58° |
| 2026-05-05 19:05 | 50.04820 | 18.29792 | 10813 ft | 353 kts | 58° |
| 2026-05-05 19:05 | 50.06219 | 18.32920 | 10792 ft | 353 kts | 58° |
| 2026-05-05 19:05 | 50.07621 | 18.36076 | 10805 ft | 352 kts | 58° |
| 2026-05-05 19:05 | 50.09004 | 18.39198 | 10822 ft | 351 kts | 58° |
| 2026-05-05 19:06 | 50.10383 | 18.42331 | 10823 ft | 352 kts | 58° |
| 2026-05-05 19:06 | 50.11775 | 18.45482 | 10811 ft | 351 kts | 58° |
| 2026-05-05 19:06 | 50.13174 | 18.48592 | 10813 ft | 353 kts | 54° |
| 2026-05-05 19:06 | 50.14753 | 18.51532 | 10818 ft | 352 kts | 57° |
| 2026-05-05 19:07 | 50.15793 | 18.54882 | 10822 ft | 347 kts | 75° |
| 2026-05-05 19:07 | 50.16649 | 18.58407 | 10821 ft | 348 kts | 71° |
| 2026-05-05 19:07 | 50.17583 | 18.61858 | 10827 ft | 347 kts | 70° |
| 2026-05-05 19:07 | 50.18539 | 18.65334 | 10826 ft | 347 kts | 70° |
| 2026-05-05 19:08 | 50.19491 | 18.68760 | 10827 ft | 347 kts | 70° |
| 2026-05-05 19:08 | 50.20455 | 18.72209 | 10824 ft | 347 kts | 69° |
| 2026-05-05 19:08 | 50.21420 | 18.75661 | 10818 ft | 347 kts | 69° |
| 2026-05-05 19:08 | 50.22392 | 18.79145 | 10809 ft | 351 kts | 69° |
| 2026-05-05 19:09 | 50.23361 | 18.82606 | 10827 ft | 348 kts | 69° |
| 2026-05-05 19:09 | 50.24325 | 18.86056 | 10685 ft | 343 kts | 69° |
| 2026-05-05 19:09 | 50.25266 | 18.89429 | 10462 ft | 335 kts | 69° |
| 2026-05-05 19:09 | 50.26178 | 18.92709 | 10201 ft | 328 kts | 69° |
| 2026-05-05 19:10 | 50.27072 | 18.95926 | 9953 ft | 323 kts | 69° |
| 2026-05-05 19:10 | 50.27962 | 18.99128 | 9713 ft | 317 kts | 69° |
| 2026-05-05 19:10 | 50.28822 | 19.02236 | 9405 ft | 313 kts | 69° |
| 2026-05-05 19:10 | 50.29692 | 19.05385 | 8809 ft | 318 kts | 69° |
| 2026-05-05 19:11 | 50.30574 | 19.08567 | 8191 ft | 315 kts | 69° |
| 2026-05-05 19:11 | 50.31431 | 19.11675 | 7562 ft | 308 kts | 69° |
| 2026-05-05 19:11 | 50.32271 | 19.14721 | 7020 ft | 301 kts | 69° |
| 2026-05-05 19:11 | 50.33089 | 19.17680 | 6608 ft | 293 kts | 69° |
| 2026-05-05 19:12 | 50.33874 | 19.20543 | 6285 ft | 280 kts | 69° |
| 2026-05-05 19:12 | 50.34629 | 19.23291 | 5975 ft | 269 kts | 70° |
| 2026-05-05 19:12 | 50.35352 | 19.25915 | 5827 ft | 252 kts | 70° |
| 2026-05-05 19:12 | 50.36017 | 19.28357 | 5646 ft | 236 kts | 70° |
| 2026-05-05 19:13 | 50.36637 | 19.30621 | 5539 ft | 225 kts | 70° |
| 2026-05-05 19:13 | 50.37242 | 19.32841 | 5419 ft | 219 kts | 70° |
| 2026-05-05 19:13 | 50.37837 | 19.35019 | 5353 ft | 219 kts | 69° |
| 2026-05-05 19:13 | 50.38782 | 19.36989 | 5257 ft | 235 kts | 38° |
| 2026-05-05 19:14 | 50.40279 | 19.37983 | 5091 ft | 237 kts | 6° |
| 2026-05-05 19:14 | 50.41929 | 19.38083 | 4995 ft | 240 kts | 359° |
| 2026-05-05 19:14 | 50.43616 | 19.38131 | 4853 ft | 243 kts | 359° |
| 2026-05-05 19:14 | 50.45302 | 19.38126 | 4672 ft | 242 kts | 352° |
| 2026-05-05 19:15 | 50.46862 | 19.37291 | 4393 ft | 233 kts | 322° |
| 2026-05-05 19:15 | 50.47930 | 19.35487 | 4098 ft | 222 kts | 292° |
| 2026-05-05 19:15 | 50.48259 | 19.33249 | 3823 ft | 203 kts | 261° |
| 2026-05-05 19:15 | 50.47894 | 19.31215 | 3603 ft | 189 kts | 245° |
| 2026-05-05 19:16 | 50.47588 | 19.29242 | 3374 ft | 185 kts | 258° |
| 2026-05-05 19:16 | 50.47549 | 19.27243 | 3124 ft | 181 kts | 264° |
| 2026-05-05 19:16 | 50.47563 | 19.25335 | 2948 ft | 171 kts | 263° |
| 2026-05-05 19:16 | 50.47563 | 19.23473 | 2714 ft | 171 kts | 265° |
| 2026-05-05 19:17 | 50.47569 | 19.21633 | 2502 ft | 170 kts | 266° |
| 2026-05-05 19:17 | 50.47573 | 19.19772 | 2260 ft | 171 kts | 267° |
| 2026-05-05 19:17 | 50.47577 | 19.17888 | 2037 ft | 169 kts | 268° |
| 2026-05-05 19:17 | 50.47581 | 19.16160 | 1806 ft | 149 kts | 268° |
| 2026-05-05 19:18 | 50.47584 | 19.14598 | 1604 ft | 139 kts | 268° |
| 2026-05-05 19:18 | 50.47587 | 19.13077 | 1387 ft | 140 kts | 268° |
| 2026-05-05 19:18 | 50.47592 | 19.11534 | 1207 ft | 142 kts | 269° |
| 2026-05-05 19:18 | 50.47595 | 19.10003 | 1041 ft | 138 kts | 268° |
| 2026-05-05 19:19 | 50.47597 | 19.08611 | 1002 ft | 110 kts | 270° |
| 2026-05-05 19:19 | 50.47600 | 19.07529 | 1003 ft | 77 kts | 270° |
| 2026-05-05 19:19 | 50.47561 | 19.07059 | 1003 ft | 33 kts | 248° |
| 2026-05-05 19:19 | 50.47496 | 19.06874 | 1001 ft | 8 kts | 240° |
| 2026-05-05 19:20 | 50.47477 | 19.06821 | 1001 ft | 5 kts | 240° |
| 2026-05-05 19:20 | 50.47443 | 19.06730 | 1001 ft | 13 kts | 240° |
| 2026-05-05 19:20 | 50.47381 | 19.06632 | 1001 ft | 12 kts | 196° |
| 2026-05-05 19:20 | 50.47279 | 19.06629 | 1001 ft | 17 kts | 165° |
| 2026-05-05 19:21 | 50.47235 | 19.06798 | 1001 ft | 13 kts | 90° |
| 2026-05-05 19:21 | 50.47235 | 19.06954 | 1001 ft | 13 kts | 90° |
| 2026-05-05 19:21 | 50.47233 | 19.07062 | 1001 ft | 8 kts | 106° |
| 2026-05-05 19:21 | 50.47204 | 19.07078 | 1001 ft | 6 kts | 179° |
| 2026-05-05 19:22 | 50.47170 | 19.07078 | 1001 ft | 3 kts | 180° |
| 2026-05-05 19:22 | 50.47167 | 19.07078 | 1001 ft | 0 kts | 180° |